createdAt,value
2023-01-06T00:01:19.671Z,6.30
2023-01-06T00:03:54.587Z,6.20
2023-01-06T00:06:27.871Z,6.20
2023-01-06T00:09:00.819Z,6.10
2023-01-06T00:11:28.110Z,6.10
2023-01-06T00:13:56.566Z,6.00
2023-01-06T00:16:24.400Z,6.00
2023-01-06T00:18:55.647Z,6.00
2023-01-06T00:21:22.911Z,6.00
2023-01-06T00:23:50.101Z,6.00
2023-01-06T00:26:17.157Z,6.00
2023-01-06T00:28:44.296Z,6.10
2023-01-06T00:31:16.488Z,6.10
2023-01-06T00:33:44.103Z,6.10
2023-01-06T00:36:14.361Z,6.10
2023-01-06T00:38:41.574Z,6.10
2023-01-06T00:41:30.296Z,6.10
2023-01-06T00:43:58.689Z,6.20
2023-01-06T00:46:29.502Z,6.30
2023-01-06T00:49:06.871Z,6.30
2023-01-06T00:51:38.084Z,6.40
2023-01-06T00:54:06.509Z,6.50
2023-01-06T00:56:36.804Z,6.50
2023-01-06T00:59:05.300Z,6.40
2023-01-06T01:01:33.034Z,6.30
2023-01-06T01:04:00.353Z,6.30
2023-01-06T01:06:27.666Z,6.30
2023-01-06T01:08:56.731Z,6.30
2023-01-06T01:11:43.096Z,6.30
2023-01-06T01:14:11.330Z,6.30
2023-01-06T01:16:38.913Z,6.20
2023-01-06T01:19:06.362Z,6.20
2023-01-06T01:21:34.150Z,6.10
2023-01-06T01:24:01.164Z,6.20
2023-01-06T01:26:28.244Z,6.30
2023-01-06T01:28:55.168Z,6.30
2023-01-06T01:31:22.242Z,6.30
2023-01-06T01:33:49.712Z,6.40
2023-01-06T01:36:18.361Z,6.40
2023-01-06T01:38:45.983Z,6.40
2023-01-06T01:41:18.266Z,6.40
2023-01-06T01:43:57.552Z,6.40
2023-01-06T01:46:30.608Z,6.30
2023-01-06T01:49:01.296Z,6.30
2023-01-06T01:51:37.678Z,6.20
2023-01-06T01:54:10.912Z,6.10
2023-01-06T01:56:42.940Z,5.70
2023-01-06T01:59:15.535Z,5.60
2023-01-06T02:01:42.772Z,5.50
2023-01-06T02:04:10.559Z,5.50
2023-01-06T02:06:37.704Z,5.50
2023-01-06T02:09:17.747Z,5.50
2023-01-06T02:11:47.585Z,5.60
2023-01-06T02:14:17.269Z,5.60
2023-01-06T02:16:56.166Z,5.50
2023-01-06T02:19:38.197Z,5.60
2023-01-06T02:22:08.264Z,5.60
2023-01-06T02:24:50.440Z,5.60
2023-01-06T02:27:57.654Z,5.70
2023-01-06T02:31:01.113Z,5.70
2023-01-06T02:33:56.086Z,5.60
2023-01-06T02:36:35.023Z,5.50
2023-01-06T02:39:11.443Z,5.50
2023-01-06T02:42:08.283Z,5.60
2023-01-06T02:44:47.815Z,5.60
2023-01-06T02:47:39.697Z,5.60
2023-01-06T02:50:06.729Z,5.50
2023-01-06T02:52:43.023Z,5.50
2023-01-06T02:55:21.883Z,5.50
2023-01-06T02:57:54.225Z,5.40
2023-01-06T03:00:30.925Z,5.30
2023-01-06T03:03:20.870Z,5.20
2023-01-06T03:05:52.460Z,5.10
2023-01-06T03:08:24.282Z,5.20
2023-01-06T03:10:53.523Z,5.20
2023-01-06T03:13:39.040Z,5.20
2023-01-06T03:16:06.717Z,5.30
2023-01-06T03:18:35.101Z,5.30
2023-01-06T03:21:07.269Z,5.40
2023-01-06T03:23:35.386Z,5.40
2023-01-06T03:26:04.144Z,5.40
2023-01-06T03:28:31.607Z,5.50
2023-01-06T03:31:20.307Z,5.50
2023-01-06T03:33:57.525Z,5.40
2023-01-06T03:36:51.130Z,5.40
2023-01-06T03:39:19.241Z,5.40
2023-01-06T03:42:07.965Z,5.60
2023-01-06T03:44:40.790Z,5.50
2023-01-06T03:47:23.968Z,5.40
2023-01-06T03:50:11.039Z,5.10
2023-01-06T03:52:45.462Z,5.10
2023-01-06T03:55:22.084Z,5.10
2023-01-06T03:57:53.177Z,5.20
2023-01-06T04:00:26.669Z,5.10
2023-01-06T04:02:53.933Z,5.10
2023-01-06T04:05:24.853Z,5.10
2023-01-06T04:07:52.324Z,5.00
2023-01-06T04:10:21.514Z,5.00
2023-01-06T04:12:49.506Z,5.00
2023-01-06T04:15:29.430Z,5.00
2023-01-06T04:17:56.929Z,5.00
2023-01-06T04:20:26.826Z,4.90
2023-01-06T04:22:55.266Z,4.90
2023-01-06T04:25:22.631Z,4.80
2023-01-06T04:27:50.140Z,4.80
2023-01-06T04:30:17.392Z,4.70
2023-01-06T04:32:44.904Z,4.80
2023-01-06T04:35:12.020Z,4.90
2023-01-06T04:37:39.469Z,5.00
2023-01-06T04:40:07.877Z,5.00
2023-01-06T04:42:55.276Z,5.00
2023-01-06T04:45:22.819Z,5.00
2023-01-06T04:47:50.105Z,4.90
2023-01-06T04:50:17.506Z,5.00
2023-01-06T04:52:44.600Z,5.00
2023-01-06T04:55:11.564Z,5.00
2023-01-06T04:57:38.481Z,5.00
2023-01-06T05:00:08.624Z,5.00
2023-01-06T05:02:35.658Z,5.10
2023-01-06T05:05:02.584Z,5.10
2023-01-06T05:07:29.561Z,5.10
2023-01-06T05:09:56.683Z,5.00
2023-01-06T05:12:23.986Z,4.90
2023-01-06T05:14:51.357Z,4.90
2023-01-06T05:17:18.457Z,4.80
2023-01-06T05:19:45.565Z,4.90
2023-01-06T05:22:12.941Z,5.00
2023-01-06T05:24:39.971Z,5.00
2023-01-06T05:27:07.082Z,5.00
2023-01-06T05:29:34.544Z,4.90
2023-01-06T05:32:01.925Z,4.80
2023-01-06T05:34:28.967Z,4.80
2023-01-06T05:36:57.042Z,4.70
2023-01-06T05:39:24.573Z,4.70
2023-01-06T05:41:51.601Z,4.60
2023-01-06T05:44:20.704Z,4.60
2023-01-06T05:46:47.956Z,4.60
2023-01-06T05:49:15.037Z,4.70
2023-01-06T05:51:42.066Z,4.80
2023-01-06T05:54:09.912Z,4.90
2023-01-06T05:56:37.232Z,5.00
2023-01-06T05:59:04.670Z,5.00
2023-01-06T06:01:32.656Z,4.90
2023-01-06T06:04:00.179Z,4.80
2023-01-06T06:06:29.586Z,4.80
2023-01-06T06:08:56.897Z,4.90
2023-01-06T06:11:24.325Z,5.10
2023-01-06T06:13:56.002Z,5.20
2023-01-06T06:16:28.513Z,5.30
2023-01-06T06:18:57.866Z,5.30
2023-01-06T06:21:27.509Z,5.20
2023-01-06T06:23:56.301Z,5.10
2023-01-06T06:26:23.829Z,5.10
2023-01-06T06:28:50.978Z,5.10
2023-01-06T06:31:27.603Z,5.10
2023-01-06T06:33:57.227Z,5.00
2023-01-06T06:36:25.009Z,4.90
2023-01-06T06:38:53.198Z,4.90
2023-01-06T06:41:21.439Z,4.90
2023-01-06T06:43:50.295Z,5.00
2023-01-06T06:46:18.367Z,5.00
2023-01-06T06:48:45.480Z,5.00
2023-01-06T06:51:14.911Z,5.10
2023-01-06T06:53:42.002Z,5.10
2023-01-06T06:56:10.321Z,5.10
2023-01-06T06:58:37.998Z,5.20
2023-01-06T07:01:10.116Z,5.10
2023-01-06T07:03:37.441Z,5.10
2023-01-06T07:06:07.501Z,5.10
2023-01-06T07:08:34.831Z,5.10
2023-01-06T07:11:02.607Z,5.10
2023-01-06T07:13:29.783Z,5.10
2023-01-06T07:15:56.798Z,5.10
2023-01-06T07:18:23.890Z,5.10
2023-01-06T07:20:54.221Z,5.20
2023-01-06T07:23:22.982Z,5.10
2023-01-06T07:25:54.754Z,5.20
2023-01-06T07:28:22.235Z,5.30
2023-01-06T07:30:50.838Z,5.40
2023-01-06T07:33:18.737Z,5.40
2023-01-06T07:35:48.438Z,5.50
2023-01-06T07:38:15.912Z,5.60
2023-01-06T07:40:43.506Z,5.60
2023-01-06T07:43:11.903Z,5.70
2023-01-06T07:45:39.195Z,5.50
2023-01-06T07:48:06.645Z,5.50
2023-01-06T07:50:34.446Z,5.60
2023-01-06T07:53:02.897Z,5.70
2023-01-06T07:55:30.672Z,5.70
2023-01-06T07:58:05.828Z,5.70
2023-01-06T08:00:33.610Z,5.70
2023-01-06T08:03:05.714Z,5.80
2023-01-06T08:05:33.211Z,5.90
2023-01-06T08:08:00.289Z,5.90
2023-01-06T08:10:27.617Z,5.90
2023-01-06T08:12:54.872Z,6.00
2023-01-06T08:15:22.108Z,6.20
2023-01-06T08:17:58.371Z,6.30
2023-01-06T08:20:25.403Z,6.30
2023-01-06T08:22:52.439Z,6.40
2023-01-06T08:25:19.595Z,6.50
2023-01-06T08:27:46.737Z,6.40
2023-01-06T08:30:14.122Z,6.40
2023-01-06T08:32:41.114Z,6.60
2023-01-06T08:35:08.464Z,6.70
2023-01-06T08:37:36.192Z,6.80
2023-01-06T08:40:03.321Z,6.90
2023-01-06T08:42:30.421Z,7.00
2023-01-06T08:45:00.765Z,7.10
2023-01-06T08:47:27.953Z,7.10
2023-01-06T08:49:55.052Z,7.30
2023-01-06T08:52:22.450Z,7.40
2023-01-06T08:54:49.590Z,7.50
2023-01-06T08:57:19.970Z,7.70
2023-01-06T08:59:47.586Z,7.90
2023-01-06T09:02:14.624Z,8.00
2023-01-06T09:04:41.837Z,8.20
2023-01-06T09:07:09.020Z,8.30
2023-01-06T09:09:38.912Z,8.40
2023-01-06T09:12:14.348Z,8.50
2023-01-06T09:14:43.699Z,8.60
2023-01-06T09:17:10.699Z,8.70
2023-01-06T09:19:37.800Z,8.80
2023-01-06T09:22:05.282Z,8.90
2023-01-06T09:24:32.292Z,8.90
2023-01-06T09:26:59.632Z,9.00
2023-01-06T09:29:26.776Z,9.10
2023-01-06T09:31:59.405Z,9.30
2023-01-06T09:34:26.376Z,9.30
2023-01-06T09:36:53.599Z,9.40
2023-01-06T09:39:20.680Z,9.40
2023-01-06T09:42:11.915Z,9.50
2023-01-06T09:44:51.053Z,9.60
2023-01-06T09:47:24.764Z,9.70
2023-01-06T09:50:14.288Z,9.80
2023-01-06T09:52:51.937Z,9.80
2023-01-06T09:55:27.403Z,9.90
2023-01-06T09:58:06.046Z,10.00
2023-01-06T10:00:47.336Z,10.00
2023-01-06T10:03:20.141Z,10.20
2023-01-06T10:06:31.281Z,10.30
2023-01-06T10:09:33.825Z,10.40
2023-01-06T10:12:39.526Z,10.50
2023-01-06T10:15:10.125Z,10.60
2023-01-06T10:17:49.404Z,10.70
2023-01-06T10:20:36.717Z,10.80
2023-01-06T10:23:27.095Z,10.80
2023-01-06T10:25:56.278Z,10.90
2023-01-06T10:28:30.697Z,10.90
2023-01-06T10:31:15.566Z,11.00
2023-01-06T10:33:49.751Z,11.10
2023-01-06T10:36:22.042Z,11.10
2023-01-06T10:38:52.537Z,11.30
2023-01-06T10:41:38.557Z,11.40
2023-01-06T10:44:06.471Z,11.40
2023-01-06T10:46:37.397Z,11.50
2023-01-06T10:49:09.744Z,11.50
2023-01-06T10:51:42.474Z,11.50
2023-01-06T10:54:13.133Z,11.70
2023-01-06T10:56:45.928Z,11.80
2023-01-06T10:59:13.077Z,11.90
2023-01-06T11:01:56.189Z,11.90
2023-01-06T11:04:24.227Z,12.00
2023-01-06T11:06:58.059Z,12.00
2023-01-06T11:09:47.258Z,12.10
2023-01-06T11:12:21.148Z,12.30
2023-01-06T11:15:00.323Z,12.40
2023-01-06T11:17:29.185Z,12.50
2023-01-06T11:20:14.853Z,12.70
2023-01-06T11:22:43.017Z,12.80
2023-01-06T11:25:24.058Z,12.80
2023-01-06T11:28:10.270Z,12.80
2023-01-06T11:31:02.942Z,13.00
2023-01-06T11:33:33.151Z,13.10
2023-01-06T11:36:09.495Z,13.20
2023-01-06T11:38:51.747Z,13.30
2023-01-06T11:41:39.421Z,13.40
2023-01-06T11:44:21.849Z,13.50
2023-01-06T11:46:52.482Z,13.50
2023-01-06T11:49:31.722Z,13.60
2023-01-06T11:52:06.978Z,13.70
2023-01-06T11:54:40.762Z,13.70
2023-01-06T11:57:19.919Z,13.80
2023-01-06T12:00:22.885Z,13.80
2023-01-06T12:03:16.977Z,14.00
2023-01-06T12:05:55.028Z,14.00
2023-01-06T12:08:28.339Z,14.00
2023-01-06T12:11:00.900Z,14.00
2023-01-06T12:13:27.960Z,14.00
2023-01-06T12:16:06.054Z,14.10
2023-01-06T12:18:36.381Z,14.10
2023-01-06T12:21:04.636Z,14.10
2023-01-06T12:23:39.812Z,14.00
2023-01-06T12:26:25.960Z,14.00
2023-01-06T12:28:56.171Z,14.20
2023-01-06T12:32:09.398Z,14.10
2023-01-06T12:34:42.750Z,14.20
2023-01-06T12:37:15.587Z,14.30
2023-01-06T12:40:01.307Z,14.20
2023-01-06T12:42:51.760Z,14.40
2023-01-06T12:45:25.113Z,14.40
2023-01-06T12:47:57.080Z,14.40
2023-01-06T12:50:56.973Z,14.50
2023-01-06T12:53:36.463Z,14.50
2023-01-06T12:56:22.079Z,14.60
2023-01-06T12:58:57.982Z,14.60
2023-01-06T13:01:52.490Z,14.60
2023-01-06T13:04:44.212Z,14.70
2023-01-06T13:07:28.870Z,14.70
2023-01-06T13:10:26.485Z,14.70
2023-01-06T13:13:12.104Z,14.80
2023-01-06T13:15:43.175Z,14.70
2023-01-06T13:18:22.605Z,14.70
2023-01-06T13:20:51.851Z,14.60
2023-01-06T13:23:48.120Z,14.60
2023-01-06T13:26:29.963Z,14.60
2023-01-06T13:29:16.065Z,14.60
2023-01-06T13:31:57.214Z,14.70
2023-01-06T13:35:23.469Z,14.70
2023-01-06T13:38:01.061Z,14.80
2023-01-06T13:40:32.430Z,14.80
2023-01-06T13:43:15.488Z,14.70
2023-01-06T13:45:43.625Z,14.60
2023-01-06T13:48:18.454Z,14.50
2023-01-06T13:50:45.778Z,14.40
2023-01-06T13:53:20.726Z,14.40
2023-01-06T13:55:48.819Z,14.40
2023-01-06T13:58:25.817Z,14.30
2023-01-06T14:01:30.250Z,14.30
2023-01-06T14:04:29.114Z,14.30
2023-01-06T14:06:56.502Z,14.20
2023-01-06T14:09:23.683Z,14.30
2023-01-06T14:11:51.186Z,14.20
2023-01-06T14:14:27.145Z,14.20
2023-01-06T14:16:55.975Z,14.10
2023-01-06T14:19:37.860Z,14.00
2023-01-06T14:22:18.864Z,13.90
2023-01-06T14:24:54.172Z,13.90
2023-01-06T14:27:45.962Z,13.80
2023-01-06T14:30:31.884Z,13.80
2023-01-06T14:33:02.062Z,13.70
2023-01-06T14:35:44.326Z,13.70
2023-01-06T14:38:20.561Z,13.50
2023-01-06T14:40:59.551Z,13.50
2023-01-06T14:43:48.071Z,13.40
2023-01-06T14:46:41.061Z,13.30
2023-01-06T14:49:18.353Z,13.10
2023-01-06T14:51:47.217Z,13.00
2023-01-06T14:54:36.799Z,12.90
2023-01-06T14:57:04.145Z,12.80
2023-01-06T14:59:31.996Z,12.70
2023-01-06T15:02:15.157Z,12.50
2023-01-06T15:04:43.904Z,12.40
2023-01-06T15:07:22.089Z,12.20
2023-01-06T15:09:50.819Z,12.00
2023-01-06T15:12:32.057Z,11.90
2023-01-06T15:15:34.672Z,11.80
2023-01-06T15:18:02.968Z,11.70
2023-01-06T15:20:39.143Z,11.50
2023-01-06T15:23:06.573Z,11.40
2023-01-06T15:25:37.747Z,11.20
2023-01-06T15:28:04.723Z,11.10
2023-01-06T15:30:34.989Z,11.00
2023-01-06T15:33:03.899Z,10.90
2023-01-06T15:35:33.056Z,10.80
2023-01-06T15:38:14.874Z,10.70
2023-01-06T15:40:42.324Z,10.60
2023-01-06T15:43:09.493Z,10.60
2023-01-06T15:45:36.878Z,10.50
2023-01-06T15:48:12.603Z,10.40
2023-01-06T15:50:39.639Z,10.30
2023-01-06T15:53:18.468Z,10.20
2023-01-06T15:55:50.107Z,10.10
2023-01-06T15:58:25.228Z,10.10
2023-01-06T16:01:07.464Z,10.00
2023-01-06T16:03:35.945Z,10.00
2023-01-06T16:06:12.249Z,10.00
2023-01-06T16:08:41.117Z,9.90
2023-01-06T16:11:16.876Z,9.90
2023-01-06T16:13:58.265Z,9.80
2023-01-06T16:16:33.726Z,9.80
2023-01-06T16:19:21.800Z,9.70
2023-01-06T16:21:54.076Z,9.60
2023-01-06T16:24:30.311Z,9.50
2023-01-06T16:27:06.381Z,9.50
2023-01-06T16:29:38.438Z,9.30
2023-01-06T16:32:26.564Z,9.20
2023-01-06T16:34:55.855Z,9.10
2023-01-06T16:37:22.898Z,9.00
2023-01-06T16:39:53.719Z,9.00
2023-01-06T16:42:40.944Z,8.90
2023-01-06T16:45:17.322Z,8.90
2023-01-06T16:47:45.384Z,8.80
2023-01-06T16:50:23.459Z,8.80
2023-01-06T16:53:12.591Z,8.70
2023-01-06T16:55:41.347Z,8.70
2023-01-06T16:58:17.417Z,8.60
2023-01-06T17:00:52.079Z,8.60
2023-01-06T17:03:30.992Z,8.50
2023-01-06T17:05:58.317Z,8.50
2023-01-06T17:08:28.930Z,8.50
2023-01-06T17:10:56.848Z,8.40
2023-01-06T17:13:36.027Z,8.40
2023-01-06T17:16:05.734Z,8.40
2023-01-06T17:18:34.278Z,8.40
2023-01-06T17:21:17.068Z,8.40
2023-01-06T17:23:51.370Z,8.40
2023-01-06T17:26:21.446Z,8.40
2023-01-06T17:28:51.512Z,8.40
2023-01-06T17:31:24.792Z,8.50
2023-01-06T17:33:55.859Z,8.40
2023-01-06T17:36:25.671Z,8.40
2023-01-06T17:38:52.818Z,8.30
2023-01-06T17:41:20.145Z,8.30
2023-01-06T17:43:47.794Z,8.20
2023-01-06T17:46:28.736Z,8.10
2023-01-06T17:49:15.935Z,8.00
2023-01-06T17:51:42.941Z,8.00
2023-01-06T17:54:35.672Z,7.90
2023-01-06T17:57:21.720Z,7.90
2023-01-06T17:59:53.293Z,7.90
2023-01-06T18:02:43.249Z,7.90
2023-01-06T18:05:25.686Z,7.70
2023-01-06T18:08:08.549Z,7.70
2023-01-06T18:10:38.140Z,7.60
2023-01-06T18:13:14.743Z,7.60
2023-01-06T18:15:41.978Z,7.60
2023-01-06T18:18:33.205Z,7.50
2023-01-06T18:21:10.697Z,7.50
2023-01-06T18:23:37.837Z,7.40
2023-01-06T18:26:27.865Z,7.40
2023-01-06T18:28:59.376Z,7.40
2023-01-06T18:31:32.239Z,7.40
2023-01-06T18:34:01.669Z,7.40
2023-01-06T18:36:28.630Z,7.40
2023-01-06T18:38:56.542Z,7.40
2023-01-06T18:41:23.616Z,7.50
2023-01-06T18:43:50.745Z,7.50
2023-01-06T18:46:18.890Z,7.60
2023-01-06T18:48:45.948Z,7.60
2023-01-06T18:51:20.282Z,7.50
2023-01-06T18:53:49.235Z,7.40
2023-01-06T18:56:27.179Z,7.40
2023-01-06T18:58:57.449Z,7.30
2023-01-06T19:01:38.432Z,7.20
2023-01-06T19:04:30.222Z,7.20
2023-01-06T19:07:38.645Z,7.10
2023-01-06T19:10:23.898Z,7.10
2023-01-06T19:12:50.924Z,7.20
2023-01-06T19:15:26.272Z,7.30
2023-01-06T19:17:56.404Z,7.20
2023-01-06T19:20:29.335Z,7.20
2023-01-06T19:22:57.303Z,7.20
2023-01-06T19:25:43.259Z,7.20
2023-01-06T19:28:31.416Z,7.10
2023-01-06T19:30:59.691Z,7.10
2023-01-06T19:33:40.325Z,7.00
2023-01-06T19:36:34.062Z,7.00
2023-01-06T19:39:09.387Z,7.00
2023-01-06T19:41:36.428Z,7.00
2023-01-06T19:44:06.212Z,7.00
2023-01-06T19:46:38.827Z,7.00
2023-01-06T19:49:14.733Z,6.90
2023-01-06T19:51:41.997Z,6.80
2023-01-06T19:54:12.133Z,6.70
2023-01-06T19:56:42.261Z,6.70
2023-01-06T19:59:29.320Z,6.60
2023-01-06T20:02:27.334Z,6.50
2023-01-06T20:04:54.487Z,6.50
2023-01-06T20:07:21.574Z,6.50
2023-01-06T20:09:49.292Z,6.50
2023-01-06T20:12:16.582Z,6.50
2023-01-06T20:14:43.757Z,6.50
2023-01-06T20:17:11.311Z,6.50
2023-01-06T20:19:38.402Z,6.50
2023-01-06T20:22:05.616Z,6.50
2023-01-06T20:24:32.585Z,6.40
2023-01-06T20:26:59.657Z,6.40
2023-01-06T20:29:26.752Z,6.40
2023-01-06T20:31:53.832Z,6.30
2023-01-06T20:34:20.976Z,6.30
2023-01-06T20:36:47.910Z,6.20
2023-01-06T20:39:15.614Z,6.20
2023-01-06T20:41:42.892Z,6.20
2023-01-06T20:44:09.804Z,6.20
2023-01-06T20:46:36.842Z,6.10
2023-01-06T20:49:04.534Z,6.20
2023-01-06T20:51:31.682Z,6.10
2023-01-06T20:53:58.702Z,6.10
2023-01-06T20:56:25.678Z,6.10
2023-01-06T20:58:52.666Z,6.00
2023-01-06T21:01:19.755Z,5.90
2023-01-06T21:03:47.563Z,5.80
2023-01-06T21:06:14.752Z,5.80
2023-01-06T21:08:41.798Z,5.80
2023-01-06T21:11:09.116Z,5.90
2023-01-06T21:13:36.118Z,5.80
2023-01-06T21:16:03.251Z,5.80
2023-01-06T21:18:31.448Z,5.80
2023-01-06T21:20:58.507Z,5.80
2023-01-06T21:23:25.656Z,5.80
2023-01-06T21:25:52.886Z,5.70
2023-01-06T21:28:20.043Z,5.80
2023-01-06T21:30:47.165Z,5.80
2023-01-06T21:33:14.583Z,5.80
2023-01-06T21:35:41.891Z,5.90
2023-01-06T21:38:08.982Z,5.90
2023-01-06T21:40:36.201Z,5.90
2023-01-06T21:43:09.196Z,5.90
2023-01-06T21:45:40.883Z,5.80
2023-01-06T21:48:08.673Z,5.80
2023-01-06T21:50:40.236Z,5.80
2023-01-06T21:53:08.461Z,5.90
2023-01-06T21:55:35.945Z,5.80
2023-01-06T21:58:03.274Z,5.70
2023-01-06T22:00:30.302Z,5.70
2023-01-06T22:02:57.792Z,5.60
2023-01-06T22:05:24.887Z,5.60
2023-01-06T22:07:53.831Z,5.50
2023-01-06T22:10:24.939Z,5.40
2023-01-06T22:12:55.145Z,5.40
2023-01-06T22:15:22.747Z,5.40
2023-01-06T22:17:50.353Z,5.50
2023-01-06T22:20:18.087Z,5.50
2023-01-06T22:22:45.665Z,5.50
2023-01-06T22:25:12.723Z,5.40
2023-01-06T22:27:39.998Z,5.40
2023-01-06T22:30:07.628Z,5.40
2023-01-06T22:32:43.179Z,5.40
2023-01-06T22:35:12.283Z,5.30
2023-01-06T22:37:39.475Z,5.30
2023-01-06T22:40:07.290Z,5.20
2023-01-06T22:42:34.617Z,5.10
2023-01-06T22:45:01.571Z,5.10
2023-01-06T22:47:29.204Z,5.10
2023-01-06T22:49:57.280Z,5.10
2023-01-06T22:52:24.850Z,4.90
2023-01-06T22:54:51.908Z,4.70
2023-01-06T22:57:18.861Z,4.70
2023-01-06T22:59:45.964Z,4.70
2023-01-06T23:02:13.938Z,4.80
2023-01-06T23:04:41.084Z,4.90
2023-01-06T23:07:08.177Z,4.90
2023-01-06T23:09:35.287Z,4.80
2023-01-06T23:12:02.351Z,4.70
2023-01-06T23:14:29.556Z,4.70
2023-01-06T23:16:56.569Z,4.60
2023-01-06T23:19:23.556Z,4.50
2023-01-06T23:21:50.619Z,4.40
2023-01-06T23:24:17.881Z,4.60
2023-01-06T23:26:46.846Z,4.70
2023-01-06T23:29:14.692Z,4.80
2023-01-06T23:31:44.110Z,4.70
2023-01-06T23:34:14.459Z,4.50
2023-01-06T23:36:42.472Z,4.50
2023-01-06T23:39:13.561Z,4.50
2023-01-06T23:41:40.660Z,4.60
2023-01-06T23:44:09.602Z,4.60
2023-01-06T23:46:38.927Z,4.60
2023-01-06T23:49:07.757Z,4.60
2023-01-06T23:51:34.995Z,4.30
2023-01-06T23:54:03.758Z,4.20
2023-01-06T23:56:33.180Z,4.20
2023-01-06T23:59:01.837Z,4.20
